Time;durP1;ratioP1;P1;durP2;ratioP2;P2;SDS_P1;SDS_P2;PMS_P1;PMS_P2;Temp;Humidity;BMP_temperature;BMP_pressure;BME280_temperature;BME280_humidity;BME280_pressure;Samples;Min_cycle;Max_cycle;Signal;HPM_P1;HPM_P2
2022/04/28 00:01:06;;;;;;;116.40;16.87;;;;;;;;;;4959280;28;20644;-74
2022/04/28 00:03:32;;;;;;;69.63;10.93;;;;;;;;;;4953037;28;20222;-73
2022/04/28 00:05:58;;;;;;;142.17;21.27;;;;;;;;;;4959388;28;20225;-73
2022/04/28 00:08:24;;;;;;;104.50;15.27;;;;;;;;;;4951077;28;20214;-74
2022/04/28 00:10:51;;;;;;;137.57;19.13;;;;;;;;;;4949492;28;20225;-73
2022/04/28 00:13:17;;;;;;;55.00;8.37;;;;;;;;;;4955746;28;20249;-73
2022/04/28 00:15:43;;;;;;;58.27;8.63;;;;;;;;;;4955876;28;20240;-74
2022/04/28 00:18:09;;;;;;;124.63;17.73;;;;;;;;;;4955827;28;20660;-74
2022/04/28 00:20:35;;;;;;;107.83;15.27;;;;;;;;;;4952688;28;20688;-74
2022/04/28 00:23:01;;;;;;;125.93;20.20;;;;;;;;;;4950178;28;20218;-73
2022/04/28 00:25:27;;;;;;;106.63;15.43;;;;;;;;;;4953277;28;20596;-73
2022/04/28 00:27:54;;;;;;;123.67;17.67;;;;;;;;;;4952226;28;20710;-75
2022/04/28 00:30:20;;;;;;;72.07;10.77;;;;;;;;;;4953988;28;20206;-74
2022/04/28 00:32:46;;;;;;;87.17;12.53;;;;;;;;;;4942486;28;20281;-75
2022/04/28 00:35:12;;;;;;;140.63;19.73;;;;;;;;;;4952089;28;20218;-74
2022/04/28 00:37:38;;;;;;;68.00;10.13;;;;;;;;;;4941256;28;20398;-74
2022/04/28 00:40:04;;;;;;;152.37;20.73;;;;;;;;;;4950539;28;20249;-73
2022/04/28 00:42:30;;;;;;;66.77;9.93;;;;;;;;;;4956511;28;20285;-73
2022/04/28 00:44:56;;;;;;;115.70;16.63;;;;;;;;;;4960363;28;20237;-73
2022/04/28 00:47:22;;;;;;;78.90;11.47;;;;;;;;;;4959006;28;20297;-74
2022/04/28 00:52:34;;;;;;;107.43;15.00;;;;;;;;;;4953946;28;20225;-73
2022/04/28 00:55:00;;;;;;;130.60;17.97;;;;;;;;;;4938718;28;20233;-74
2022/04/28 00:57:26;;;;;;;114.93;16.03;;;;;;;;;;4952379;28;20202;-75
2022/04/28 00:59:53;;;;;;;112.23;15.63;;;;;;;;;;4951604;28;20186;-74
2022/04/28 01:02:19;;;;;;;82.93;11.77;;;;;;;;;;4955800;28;20222;-74
2022/04/28 01:04:46;;;;;;;75.23;10.83;;;;;;;;;;4950585;28;20221;-74
2022/04/28 01:07:12;;;;;;;119.60;16.97;;;;;;;;;;4937064;28;20359;-74
2022/04/28 01:09:38;;;;;;;92.43;13.70;;;;;;;;;;4950161;28;20221;-74
2022/04/28 01:12:05;;;;;;;174.43;24.83;;;;;;;;;;4956840;28;20465;-74
2022/04/28 01:14:31;;;;;;;70.53;10.50;;;;;;;;;;4938771;28;20224;-74
2022/04/28 01:17:01;;;;;;;104.73;16.00;;;;;;;;;;4956358;28;20222;-74
2022/04/28 01:19:27;;;;;;;73.37;10.57;;;;;;;;;;4958994;28;20265;-73
2022/04/28 01:21:53;;;;;;;78.90;11.73;;;;;;;;;;4940906;28;20587;-74
2022/04/28 01:24:19;;;;;;;48.87;7.47;;;;;;;;;;4959644;28;20248;-74
2022/04/28 01:26:45;;;;;;;89.87;12.90;;;;;;;;;;4956169;28;20592;-74
2022/04/28 01:29:11;;;;;;;118.13;17.47;;;;;;;;;;4950142;28;20738;-74
2022/04/28 01:31:37;;;;;;;79.63;11.40;;;;;;;;;;4938725;28;20226;-74
2022/04/28 01:34:03;;;;;;;98.70;15.27;;;;;;;;;;4955742;28;20301;-74
2022/04/28 01:36:29;;;;;;;100.40;13.93;;;;;;;;;;4951170;28;20592;-74
2022/04/28 01:38:55;;;;;;;107.57;15.00;;;;;;;;;;4954275;28;20596;-74
2022/04/28 01:41:21;;;;;;;64.67;9.07;;;;;;;;;;4940517;28;20222;-74
2022/04/28 01:43:47;;;;;;;80.20;11.37;;;;;;;;;;4954995;28;20284;-74
2022/04/28 01:46:13;;;;;;;134.93;18.27;;;;;;;;;;4948904;28;20800;-74
2022/04/28 01:48:39;;;;;;;98.13;14.03;;;;;;;;;;4955775;28;20194;-74
2022/04/28 01:56:35;;;;;;;78.80;11.13;;;;;;;;;;4950735;28;20294;-74
2022/04/28 01:59:01;;;;;;;130.47;17.67;;;;;;;;;;4951066;28;20225;-73
2022/04/28 02:01:27;;;;;;;92.13;12.67;;;;;;;;;;4932758;28;20226;-74
2022/04/28 02:03:53;;;;;;;123.23;16.70;;;;;;;;;;4951070;28;20214;-74
2022/04/28 02:06:19;;;;;;;140.37;19.23;;;;;;;;;;4954726;28;20668;-73
2022/04/28 02:08:46;;;;;;;87.77;12.13;;;;;;;;;;4957655;28;20700;-74
2022/04/28 02:11:12;;;;;;;123.50;16.47;;;;;;;;;;4949601;28;20225;-74
2022/04/28 02:13:38;;;;;;;90.83;12.57;;;;;;;;;;4934375;28;20214;-73
2022/04/28 02:16:04;;;;;;;119.57;16.60;;;;;;;;;;4937132;28;20692;-73
2022/04/28 02:18:30;;;;;;;61.43;9.13;;;;;;;;;;4951515;28;20183;-74
2022/04/28 02:20:56;;;;;;;128.03;17.43;;;;;;;;;;4947536;28;20233;-74
2022/04/28 02:23:22;;;;;;;69.83;10.07;;;;;;;;;;4935518;28;20311;-73
2022/04/28 02:25:48;;;;;;;99.13;13.70;;;;;;;;;;4953604;28;20218;-74
2022/04/28 02:28:13;;;;;;;56.47;8.17;;;;;;;;;;4955874;28;20229;-74
2022/04/28 02:30:40;;;;;;;119.33;16.30;;;;;;;;;;4949480;28;20214;-74
2022/04/28 02:33:08;;;;;;;133.50;18.17;;;;;;;;;;4949417;28;20301;-75
2022/04/28 02:35:35;;;;;;;72.50;10.27;;;;;;;;;;4952618;28;20835;-73
2022/04/28 02:38:01;;;;;;;78.70;11.10;;;;;;;;;;4954060;28;20249;-73
2022/04/28 02:40:27;;;;;;;84.47;11.70;;;;;;;;;;4961931;28;20250;-73
2022/04/28 02:42:53;;;;;;;86.73;12.00;;;;;;;;;;4953504;28;20215;-73
2022/04/28 02:45:19;;;;;;;93.40;12.83;;;;;;;;;;4960057;28;20237;-73
2022/04/28 02:47:45;;;;;;;88.13;12.17;;;;;;;;;;4949600;28;20212;-73
2022/04/28 02:50:11;;;;;;;130.20;17.73;;;;;;;;;;4948923;28;20309;-73
2022/04/28 02:52:40;;;;;;;87.17;12.10;;;;;;;;;;4948002;28;20211;-73
2022/04/28 02:55:07;;;;;;;131.37;17.67;;;;;;;;;;4930372;28;20320;-73
2022/04/28 02:57:33;;;;;;;71.53;10.53;;;;;;;;;;4936223;28;20231;-73
2022/04/28 02:59:58;;;;;;;149.80;19.90;;;;;;;;;;4951035;28;20183;-73
2022/04/28 03:02:25;;;;;;;98.97;13.53;;;;;;;;;;4948525;28;20231;-73
2022/04/28 03:04:51;;;;;;;90.07;12.33;;;;;;;;;;4952766;28;22436;-73
2022/04/28 03:12:47;;;;;;;117.03;15.53;;;;;;;;;;4950960;28;20225;-74
2022/04/28 03:15:13;;;;;;;65.03;9.37;;;;;;;;;;4934358;28;20253;-73
2022/04/28 03:17:39;;;;;;;73.77;10.40;;;;;;;;;;4952905;28;20230;-74
2022/04/28 03:20:05;;;;;;;138.30;18.30;;;;;;;;;;4952575;28;20207;-73
2022/04/28 03:22:35;;;;;;;103.03;13.97;;;;;;;;;;4955565;28;20281;-73
2022/04/28 03:25:01;;;;;;;91.80;13.30;;;;;;;;;;4940052;28;20222;-73
2022/04/28 03:27:28;;;;;;;70.10;10.27;;;;;;;;;;4952993;28;20191;-72
2022/04/28 03:29:54;;;;;;;95.20;13.07;;;;;;;;;;4935311;28;20214;-73
2022/04/28 03:32:20;;;;;;;73.63;10.40;;;;;;;;;;4951550;28;20222;-73
2022/04/28 03:34:46;;;;;;;83.33;11.47;;;;;;;;;;4941512;28;20211;-73
2022/04/28 03:37:12;;;;;;;116.37;15.50;;;;;;;;;;4959227;28;20754;-73
2022/04/28 03:39:38;;;;;;;90.20;12.83;;;;;;;;;;4959024;28;20242;-72
2022/04/28 03:42:05;;;;;;;201.87;27.43;;;;;;;;;;4951377;28;20205;-72
2022/04/28 03:44:31;;;;;;;89.93;12.30;;;;;;;;;;4953695;28;20222;-73
2022/04/28 03:46:56;;;;;;;101.77;14.00;;;;;;;;;;4955033;28;20306;-73
2022/04/28 03:49:23;;;;;;;95.03;12.77;;;;;;;;;;4952644;28;20222;-73
2022/04/28 03:51:49;;;;;;;155.50;20.10;;;;;;;;;;4929025;28;20234;-73
2022/04/28 03:54:15;;;;;;;101.60;13.37;;;;;;;;;;4951135;28;20929;-73
2022/04/28 03:56:41;;;;;;;115.07;15.30;;;;;;;;;;4937266;28;20672;-73
2022/04/28 03:59:09;;;;;;;129.93;18.17;;;;;;;;;;4942005;28;20249;-73
2022/04/28 04:01:35;;;;;;;77.53;10.90;;;;;;;;;;4957059;28;20226;-73
2022/04/28 04:04:01;;;;;;;145.53;18.93;;;;;;;;;;4953822;28;20292;-73
2022/04/28 04:06:27;;;;;;;94.07;13.00;;;;;;;;;;4955298;28;20187;-73
2022/04/28 04:08:53;;;;;;;108.73;14.60;;;;;;;;;;4951397;28;20253;-73
2022/04/28 04:11:19;;;;;;;108.80;14.57;;;;;;;;;;4953228;28;20255;-73
2022/04/28 04:13:46;;;;;;;95.43;12.93;;;;;;;;;;4932290;28;20338;-73
2022/04/28 04:16:12;;;;;;;122.63;16.40;;;;;;;;;;4939595;28;20269;-73
2022/04/28 04:18:38;;;;;;;98.90;13.77;;;;;;;;;;4955074;28;20217;-72
2022/04/28 04:21:04;;;;;;;157.97;20.63;;;;;;;;;;4954291;28;20237;-72
2022/04/28 04:23:31;;;;;;;119.40;16.13;;;;;;;;;;4950397;28;20226;-73
2022/04/28 04:25:57;;;;;;;128.77;17.23;;;;;;;;;;4951765;28;20226;-73
2022/04/28 04:28:23;;;;;;;101.07;13.60;;;;;;;;;;4952567;28;20242;-73
2022/04/28 04:33:35;;;;;;;91.87;12.93;;;;;;;;;;4948204;28;20260;-73
2022/04/28 04:36:01;;;;;;;151.90;20.43;;;;;;;;;;4934601;28;20530;-73
2022/04/28 04:38:27;;;;;;;108.73;14.67;;;;;;;;;;4929687;28;20230;-73
2022/04/28 04:40:53;;;;;;;96.23;13.23;;;;;;;;;;4951014;28;20316;-73
2022/04/28 04:43:19;;;;;;;93.97;12.67;;;;;;;;;;4936046;28;20549;-76
2022/04/28 04:45:45;;;;;;;51.97;7.53;;;;;;;;;;4937088;28;20222;-73
2022/04/28 04:48:11;;;;;;;138.50;19.07;;;;;;;;;;4959175;28;20190;-73
2022/04/28 04:50:38;;;;;;;111.83;14.80;;;;;;;;;;4955112;28;20228;-72
2022/04/28 04:53:04;;;;;;;122.40;16.77;;;;;;;;;;4950410;28;20214;-73
2022/04/28 04:55:30;;;;;;;90.73;12.50;;;;;;;;;;4957739;28;20791;-74
2022/04/28 04:57:57;;;;;;;131.93;18.13;;;;;;;;;;4930078;28;20206;-73
2022/04/28 05:00:23;;;;;;;64.00;9.40;;;;;;;;;;4939949;28;20194;-74
2022/04/28 05:02:49;;;;;;;95.97;13.37;;;;;;;;;;4937918;28;20694;-73
2022/04/28 05:05:15;;;;;;;65.67;9.53;;;;;;;;;;4955210;28;20229;-73
2022/04/28 05:07:41;;;;;;;72.87;10.17;;;;;;;;;;4935989;28;20309;-75
2022/04/28 05:10:07;;;;;;;94.53;14.13;;;;;;;;;;4938786;28;20218;-74
2022/04/28 05:12:33;;;;;;;78.60;11.10;;;;;;;;;;4957804;28;20743;-74
2022/04/28 05:14:59;;;;;;;106.83;15.93;;;;;;;;;;4959424;28;20194;-74
2022/04/28 05:17:25;;;;;;;83.33;11.90;;;;;;;;;;4941946;28;20233;-74
2022/04/28 05:19:51;;;;;;;63.67;9.23;;;;;;;;;;4941978;28;20218;-74
2022/04/28 05:22:17;;;;;;;35.67;5.50;;;;;;;;;;4957876;28;20739;-74
2022/04/28 05:24:43;;;;;;;41.30;6.30;;;;;;;;;;4964012;28;20218;-74
2022/04/28 05:27:10;;;;;;;109.93;15.80;;;;;;;;;;4957374;28;20178;-73
2022/04/28 05:29:36;;;;;;;81.03;11.27;;;;;;;;;;4957942;28;20226;-73
2022/04/28 05:32:02;;;;;;;162.00;22.17;;;;;;;;;;4938199;28;20225;-73
2022/04/28 05:34:28;;;;;;;87.10;12.53;;;;;;;;;;4951530;28;20637;-70
2022/04/28 05:36:54;;;;;;;124.53;16.93;;;;;;;;;;4950208;28;20217;-71
2022/04/28 05:39:20;;;;;;;103.10;14.17;;;;;;;;;;4951966;28;22227;-71
2022/04/28 05:41:46;;;;;;;201.43;27.13;;;;;;;;;;4946138;28;20898;-71
2022/04/28 05:46:56;;;;;;;111.10;15.43;;;;;;;;;;4942245;28;20240;-71
2022/04/28 05:49:22;;;;;;;126.20;17.63;;;;;;;;;;4949206;28;20719;-71
2022/04/28 05:51:49;;;;;;;112.53;15.37;;;;;;;;;;4941241;28;20245;-70
2022/04/28 05:54:15;;;;;;;85.43;12.30;;;;;;;;;;4953750;28;20791;-71
2022/04/28 05:56:42;;;;;;;117.63;16.23;;;;;;;;;;4954966;28;20210;-71
2022/04/28 05:59:09;;;;;;;142.37;20.10;;;;;;;;;;4949175;28;20344;-71
2022/04/28 06:01:35;;;;;;;95.50;13.70;;;;;;;;;;4948115;28;20849;-71
2022/04/28 06:04:01;;;;;;;151.77;22.27;;;;;;;;;;4945813;28;20260;-71
2022/04/28 06:06:27;;;;;;;202.73;28.40;;;;;;;;;;4941893;28;20203;-71
2022/04/28 06:08:53;;;;;;;92.57;13.00;;;;;;;;;;4950724;28;20227;-71
2022/04/28 06:11:18;;;;;;;87.03;12.63;;;;;;;;;;4951305;28;20214;-71
2022/04/28 06:13:44;;;;;;;101.57;14.90;;;;;;;;;;4957032;28;20206;-71
2022/04/28 06:16:10;;;;;;;140.73;19.73;;;;;;;;;;4950823;28;20257;-71
2022/04/28 06:18:36;;;;;;;53.10;8.63;;;;;;;;;;4953680;28;20195;-71
2022/04/28 06:21:03;;;;;;;184.93;26.93;;;;;;;;;;4949228;28;20273;-67
2022/04/28 06:23:29;;;;;;;94.53;13.50;;;;;;;;;;4952237;28;20219;-67
2022/04/28 06:25:54;;;;;;;118.87;16.50;;;;;;;;;;4951905;28;20218;-71
2022/04/28 06:28:20;;;;;;;64.67;9.67;;;;;;;;;;4954548;28;20244;-66
2022/04/28 06:30:46;;;;;;;83.60;12.33;;;;;;;;;;4955223;28;20629;-68
2022/04/28 06:33:12;;;;;;;129.23;17.93;;;;;;;;;;4948250;28;20680;-65
2022/04/28 06:35:38;;;;;;;219.33;29.47;;;;;;;;;;4942963;28;20229;-63
2022/04/28 06:38:04;;;;;;;155.30;22.37;;;;;;;;;;4934912;28;20233;-63
2022/04/28 06:40:31;;;;;;;112.43;15.63;;;;;;;;;;4953205;28;20226;-64
2022/04/28 06:42:57;;;;;;;185.23;26.43;;;;;;;;;;4948688;28;20225;-65
2022/04/28 06:45:23;;;;;;;59.10;9.13;;;;;;;;;;4938027;28;20555;-64
2022/04/28 06:47:49;;;;;;;55.23;8.53;;;;;;;;;;4956589;28;20182;-65
2022/04/28 06:50:15;;;;;;;161.97;22.63;;;;;;;;;;4949266;28;20230;-65
2022/04/28 06:52:41;;;;;;;103.53;15.13;;;;;;;;;;4954334;28;20755;-66
2022/04/28 06:55:08;;;;;;;91.53;13.77;;;;;;;;;;4955540;28;20581;-71
2022/04/28 06:57:34;;;;;;;106.57;15.67;;;;;;;;;;4955146;28;20182;-60
2022/04/28 07:00:02;;;;;;;180.50;25.90;;;;;;;;;;4953128;28;20185;-60
2022/04/28 07:02:28;;;;;;;79.77;11.83;;;;;;;;;;4956301;28;21634;-60
2022/04/28 07:04:54;;;;;;;98.40;13.93;;;;;;;;;;4941071;28;20214;-60
2022/04/28 07:07:20;;;;;;;80.43;11.80;;;;;;;;;;4955719;28;20280;-60
2022/04/28 07:09:46;;;;;;;52.33;8.07;;;;;;;;;;4954983;28;20230;-66
2022/04/28 07:12:12;;;;;;;131.07;19.27;;;;;;;;;;4963694;28;20245;-66
2022/04/28 07:14:38;;;;;;;57.40;9.10;;;;;;;;;;4962911;28;20249;-66
2022/04/28 07:17:04;;;;;;;102.03;16.07;;;;;;;;;;4960560;28;20249;-67
2022/04/28 07:19:30;;;;;;;99.90;15.10;;;;;;;;;;4957160;28;20219;-65
2022/04/28 07:21:56;;;;;;;185.40;27.73;;;;;;;;;;4951854;28;20273;-67
2022/04/28 07:24:22;;;;;;;103.17;15.27;;;;;;;;;;4952695;28;20256;-69
2022/04/28 07:26:48;;;;;;;118.77;17.70;;;;;;;;;;4947657;28;20835;-66
2022/04/28 07:29:14;;;;;;;52.47;8.67;;;;;;;;;;4956804;28;20272;-66
2022/04/28 07:31:40;;;;;;;184.53;27.83;;;;;;;;;;4956764;28;20233;-66
2022/04/28 07:34:06;;;;;;;164.90;24.27;;;;;;;;;;4946670;28;22666;-65
2022/04/28 07:36:32;;;;;;;81.20;13.70;;;;;;;;;;4954785;28;20664;-66
2022/04/28 07:38:58;;;;;;;215.47;32.57;;;;;;;;;;4949093;28;20194;-66
2022/04/28 07:41:24;;;;;;;167.93;25.37;;;;;;;;;;4950038;28;22324;-65
2022/04/28 07:43:50;;;;;;;79.55;12.95;;;;;;;;;;4956015;28;20224;-66
2022/04/28 07:46:16;;;;;;;112.70;16.67;;;;;;;;;;4952889;28;20218;-66
2022/04/28 07:48:42;;;;;;;108.97;16.17;;;;;;;;;;4951487;28;20683;-65
2022/04/28 07:51:08;;;;;;;135.87;21.93;;;;;;;;;;4959589;28;20747;-66
2022/04/28 07:53:34;;;;;;;123.28;18.90;;;;;;;;;;4956791;28;20210;-66
2022/04/28 07:56:10;;;;;;;152.57;25.43;;;;;;;;;;4953455;28;20241;-66
2022/04/28 07:58:36;;;;;;;91.93;14.57;;;;;;;;;;4950622;28;20855;-68
2022/04/28 08:01:02;;;;;;;134.85;20.20;;;;;;;;;;4961110;28;20257;-64
2022/04/28 08:03:28;;;;;;;132.47;20.23;;;;;;;;;;4953952;28;20191;-68
2022/04/28 08:05:54;;;;;;;116.30;17.50;;;;;;;;;;4955626;28;20201;-67
2022/04/28 08:08:20;;;;;;;51.42;8.48;;;;;;;;;;4955782;28;21300;-66
2022/04/28 08:10:47;;;;;;;104.77;15.87;;;;;;;;;;4951504;28;20588;-65
2022/04/28 08:13:13;;;;;;;136.45;20.63;;;;;;;;;;4949703;28;20253;-66
2022/04/28 08:15:39;;;;;;;101.85;15.77;;;;;;;;;;4953238;28;20281;-66
2022/04/28 08:18:05;;;;;;;138.73;22.43;;;;;;;;;;4955060;28;20584;-65
2022/04/28 08:20:31;;;;;;;101.43;15.82;;;;;;;;;;4952049;28;20215;-65
2022/04/28 08:22:57;;;;;;;170.03;28.63;;;;;;;;;;4951950;28;20273;-65
2022/04/28 08:25:23;;;;;;;97.68;15.13;;;;;;;;;;4953321;28;20225;-65
2022/04/28 08:27:49;;;;;;;101.95;15.23;;;;;;;;;;4953388;28;20611;-65
2022/04/28 08:30:15;;;;;;;80.53;12.52;;;;;;;;;;4956370;28;20206;-66
2022/04/28 08:32:41;;;;;;;139.23;21.83;;;;;;;;;;4935864;28;20577;-65
2022/04/28 08:35:08;;;;;;;87.60;14.70;;;;;;;;;;4956792;28;20217;-64
2022/04/28 08:37:34;;;;;;;86.97;13.67;;;;;;;;;;4951615;28;20221;-66
2022/04/28 08:40:00;;;;;;;128.47;19.60;;;;;;;;;;4956243;28;20222;-66
2022/04/28 08:42:27;;;;;;;105.07;16.57;;;;;;;;;;4945310;28;20222;-66
2022/04/28 08:44:55;;;;;;;142.75;22.75;;;;;;;;;;4946287;28;20187;-63
2022/04/28 08:47:21;;;;;;;73.63;12.00;;;;;;;;;;4954551;28;20245;-67
2022/04/28 08:49:50;;;;;;;98.47;16.02;;;;;;;;;;4954611;28;20683;-67
2022/04/28 08:52:16;;;;;;;128.48;20.27;;;;;;;;;;4950408;28;20221;-66
2022/04/28 08:54:44;;;;;;;58.90;9.95;;;;;;;;;;4950807;28;20218;-67
2022/04/28 08:57:12;;;;;;;85.55;13.30;;;;;;;;;;4960066;28;20186;-67
2022/04/28 08:59:38;;;;;;;99.97;15.27;;;;;;;;;;4960601;28;20640;-67
2022/04/28 09:02:04;;;;;;;153.23;24.10;;;;;;;;;;4950547;28;20222;-67
2022/04/28 09:04:30;;;;;;;88.00;13.70;;;;;;;;;;4940676;28;20269;-67
2022/04/28 09:06:57;;;;;;;68.40;11.55;;;;;;;;;;4957010;28;20631;-66
2022/04/28 09:09:24;;;;;;;120.00;18.95;;;;;;;;;;4953596;28;20218;-66
2022/04/28 09:11:53;;;;;;;73.97;12.53;;;;;;;;;;4959580;28;20201;-65
2022/04/28 09:14:20;;;;;;;162.27;27.05;;;;;;;;;;4957107;28;20356;-65
2022/04/28 09:16:48;;;;;;;137.77;22.42;;;;;;;;;;4938015;28;20218;-64
2022/04/28 09:19:14;;;;;;;118.07;19.30;;;;;;;;;;4955981;28;20251;-65
2022/04/28 09:21:40;;;;;;;105.25;17.42;;;;;;;;;;4952130;28;20202;-64
2022/04/28 09:24:06;;;;;;;91.72;14.50;;;;;;;;;;4957962;28;20237;-65
2022/04/28 09:26:33;;;;;;;86.05;14.45;;;;;;;;;;4952691;28;20218;-65
2022/04/28 09:29:02;;;;;;;137.18;22.95;;;;;;;;;;4947978;28;20648;-64
2022/04/28 09:31:35;;;;;;;140.20;23.67;;;;;;;;;;4944151;28;20229;-64
2022/04/28 09:34:21;;;;;;;140.35;24.17;;;;;;;;;;4956962;28;20369;-66
2022/04/28 09:36:47;;;;;;;109.07;17.80;;;;;;;;;;4948779;28;20241;-66
2022/04/28 09:44:52;;;;;;;70.75;11.93;;;;;;;;;;4961408;28;20252;-67
2022/04/28 09:47:22;;;;;;;99.10;15.98;;;;;;;;;;4960272;28;20273;-66
2022/04/28 09:49:52;;;;;;;63.92;11.05;;;;;;;;;;4966296;28;20719;-67
2022/04/28 09:52:19;;;;;;;106.68;17.83;;;;;;;;;;4943552;28;20226;-66
2022/04/28 09:54:45;;;;;;;87.85;14.50;;;;;;;;;;4960853;28;20230;-67
2022/04/28 09:57:12;;;;;;;107.45;20.75;;;;;;;;;;4964414;28;20187;-67
2022/04/28 09:59:38;;;;;;;169.45;32.03;;;;;;;;;;4952318;28;20671;-66
2022/04/28 10:02:04;;;;;;;151.85;29.27;;;;;;;;;;4958084;28;20257;-66
2022/04/28 10:04:30;;;;;;;91.47;17.45;;;;;;;;;;4961523;28;20226;-66
2022/04/28 10:06:58;;;;;;;118.18;23.05;;;;;;;;;;4954245;28;20206;-66
2022/04/28 10:09:24;;;;;;;171.40;31.92;;;;;;;;;;4964038;28;20296;-66
2022/04/28 10:11:50;;;;;;;63.67;12.38;;;;;;;;;;4961576;28;20207;-67
2022/04/28 10:14:18;;;;;;;51.10;10.23;;;;;;;;;;4963636;28;20210;-67
2022/04/28 10:16:47;;;;;;;72.57;14.15;;;;;;;;;;4963479;28;20214;-67
2022/04/28 10:19:16;;;;;;;66.88;12.75;;;;;;;;;;4961785;28;20317;-67
2022/04/28 10:21:46;;;;;;;89.70;17.48;;;;;;;;;;4964726;28;20221;-67
2022/04/28 10:32:57;;;;;;;156.02;29.25;;;;;;;;;;4953797;28;20588;-66
2022/04/28 10:35:42;;;;;;;76.78;14.85;;;;;;;;;;4961401;28;20206;-66
2022/04/28 10:38:11;;;;;;;167.38;35.38;;;;;;;;;;4947427;28;20230;-67
2022/04/28 10:40:39;;;;;;;145.88;27.95;;;;;;;;;;4949833;28;20214;-66
2022/04/28 10:43:18;;;;;;;141.90;27.63;;;;;;;;;;4954345;28;20276;-66
2022/04/28 10:45:45;;;;;;;115.40;22.35;;;;;;;;;;4954023;28;20342;-66
2022/04/28 10:51:01;;;;;;;152.00;28.55;;;;;;;;;;4951322;28;20257;-66
2022/04/28 10:53:27;;;;;;;90.80;17.45;;;;;;;;;;4952499;28;20620;-68
2022/04/28 10:55:53;;;;;;;91.10;16.98;;;;;;;;;;4954407;28;20220;-67
2022/04/28 10:58:23;;;;;;;97.38;18.73;;;;;;;;;;4952981;28;20210;-68
2022/04/28 11:00:53;;;;;;;144.30;26.48;;;;;;;;;;4951250;28;20210;-66
2022/04/28 11:03:39;;;;;;;48.20;9.27;;;;;;;;;;4944649;28;20237;-68
2022/04/28 11:06:08;;;;;;;171.98;30.15;;;;;;;;;;4958708;28;20234;-68
2022/04/28 11:08:35;;;;;;;67.13;12.13;;;;;;;;;;4945412;28;20222;-70
2022/04/28 11:11:04;;;;;;;109.60;19.60;;;;;;;;;;4953072;28;20274;-64
2022/04/28 11:13:31;;;;;;;69.50;12.02;;;;;;;;;;4964683;28;20222;-65
2022/04/28 11:15:57;;;;;;;117.68;20.30;;;;;;;;;;4941864;28;20278;-68
2022/04/28 11:18:23;;;;;;;109.30;20.17;;;;;;;;;;4957064;28;20193;-63
2022/04/28 11:20:49;;;;;;;77.53;14.68;;;;;;;;;;4962257;28;20281;-64
2022/04/28 11:23:18;;;;;;;111.75;19.33;;;;;;;;;;4919724;28;1040331;-64
2022/04/28 11:25:44;;;;;;;95.78;17.88;;;;;;;;;;4961986;28;20692;-65
2022/04/28 11:28:10;;;;;;;124.90;24.08;;;;;;;;;;4959434;28;20890;-63
2022/04/28 11:30:41;;;;;;;84.78;16.58;;;;;;;;;;4959438;28;20202;-64
2022/04/28 11:33:07;;;;;;;134.93;26.17;;;;;;;;;;4963370;28;20261;-64
2022/04/28 11:35:39;;;;;;;67.68;13.32;;;;;;;;;;4964262;28;20299;-64
2022/04/28 11:38:05;;;;;;;133.57;27.25;;;;;;;;;;4960017;28;20206;-65
2022/04/28 11:40:34;;;;;;;71.63;14.07;;;;;;;;;;4962060;28;20217;-64
2022/04/28 11:43:01;;;;;;;121.30;24.05;;;;;;;;;;4963410;28;20696;-64
2022/04/28 11:45:30;;;;;;;70.57;14.25;;;;;;;;;;4961931;28;20301;-64
2022/04/28 11:47:58;;;;;;;117.00;21.48;;;;;;;;;;4954403;28;20178;-64
2022/04/28 11:50:26;;;;;;;63.17;12.02;;;;;;;;;;4958284;28;20241;-64
2022/04/28 11:53:06;;;;;;;109.57;19.20;;;;;;;;;;4959925;28;20301;-65
2022/04/28 11:55:36;;;;;;;61.78;11.80;;;;;;;;;;4958342;28;20215;-64
2022/04/28 11:58:03;;;;;;;135.27;27.92;;;;;;;;;;4940457;28;20230;-63
2022/04/28 12:00:35;;;;;;;90.32;16.98;;;;;;;;;;4961446;28;20246;-65
2022/04/28 12:03:03;;;;;;;119.50;23.85;;;;;;;;;;4957569;28;20272;-64
2022/04/28 12:05:32;;;;;;;47.55;9.70;;;;;;;;;;4965118;28;20210;-64
2022/04/28 12:07:58;;;;;;;124.80;24.02;;;;;;;;;;4961401;28;20772;-63
2022/04/28 12:15:58;;;;;;;108.80;22.30;;;;;;;;;;4948186;28;20220;-65
2022/04/28 12:21:17;;;;;;;148.15;28.10;;;;;;;;;;4945613;28;20882;-65
2022/04/28 12:23:45;;;;;;;93.68;17.50;;;;;;;;;;4962623;28;20221;-65
2022/04/28 12:26:12;;;;;;;106.28;21.15;;;;;;;;;;4956057;28;20217;-66
2022/04/28 12:28:42;;;;;;;100.75;18.48;;;;;;;;;;4940273;28;20218;-65
2022/04/28 12:31:10;;;;;;;168.93;34.38;;;;;;;;;;4957003;28;20233;-65
2022/04/28 12:33:37;;;;;;;97.55;18.88;;;;;;;;;;4957374;28;20193;-64
2022/04/28 12:36:04;;;;;;;209.50;40.53;;;;;;;;;;4959840;28;20236;-65
2022/04/28 12:38:33;;;;;;;64.47;12.88;;;;;;;;;;4958080;28;20214;-64
2022/04/28 12:41:11;;;;;;;179.63;32.38;;;;;;;;;;4951776;28;20257;-65
2022/04/28 12:43:42;;;;;;;172.48;31.58;;;;;;;;;;4947817;28;20213;-65
2022/04/28 12:46:09;;;;;;;99.15;19.55;;;;;;;;;;4947872;28;20225;-63
2022/04/28 12:48:36;;;;;;;138.82;26.05;;;;;;;;;;4948353;28;20202;-63
2022/04/28 12:51:15;;;;;;;188.98;34.10;;;;;;;;;;4950286;28;20868;-64
2022/04/28 12:53:43;;;;;;;140.40;25.88;;;;;;;;;;4952334;28;20229;-64
2022/04/28 12:56:10;;;;;;;154.70;28.15;;;;;;;;;;4954510;28;20838;-64
2022/04/28 12:58:37;;;;;;;141.40;25.58;;;;;;;;;;4949358;28;20214;-64
2022/04/28 13:01:03;;;;;;;155.48;27.70;;;;;;;;;;4948832;28;20273;-64
2022/04/28 13:03:29;;;;;;;126.82;23.85;;;;;;;;;;4947771;28;20223;-63
2022/04/28 13:05:55;;;;;;;198.93;33.65;;;;;;;;;;4928670;28;20216;-65
2022/04/28 13:08:22;;;;;;;103.70;18.33;;;;;;;;;;4950611;28;20700;-63
2022/04/28 13:10:48;;;;;;;119.40;21.60;;;;;;;;;;4955405;28;20332;-63
2022/04/28 13:13:14;;;;;;;93.32;16.27;;;;;;;;;;4956194;28;20297;-64
2022/04/28 13:15:40;;;;;;;103.97;18.58;;;;;;;;;;4959995;28;20272;-64
2022/04/28 13:18:06;;;;;;;146.85;25.30;;;;;;;;;;4951076;28;20190;-64
2022/04/28 13:20:32;;;;;;;86.10;15.85;;;;;;;;;;4942320;28;20218;-64
2022/04/28 13:22:58;;;;;;;112.78;21.10;;;;;;;;;;4956504;28;20217;-65
2022/04/28 13:25:24;;;;;;;63.97;12.10;;;;;;;;;;4965953;28;20218;-65
2022/04/28 13:27:50;;;;;;;99.63;17.63;;;;;;;;;;4957124;28;20209;-65
2022/04/28 13:30:16;;;;;;;80.93;15.23;;;;;;;;;;4955853;28;20213;-64
2022/04/28 13:32:42;;;;;;;96.97;17.90;;;;;;;;;;4947998;28;20233;-65
2022/04/28 13:35:08;;;;;;;109.68;22.08;;;;;;;;;;4956288;28;20224;-66
2022/04/28 13:37:34;;;;;;;73.18;14.00;;;;;;;;;;4958533;28;20895;-66
2022/04/28 13:40:00;;;;;;;102.88;19.80;;;;;;;;;;4962989;28;20269;-66
2022/04/28 13:42:26;;;;;;;61.05;12.15;;;;;;;;;;4958835;28;20892;-65
2022/04/28 13:44:52;;;;;;;59.65;11.73;;;;;;;;;;4956837;28;20218;-65
2022/04/28 13:47:18;;;;;;;76.47;15.35;;;;;;;;;;4958013;28;20230;-65
2022/04/28 13:49:44;;;;;;;134.32;27.83;;;;;;;;;;4957570;28;20265;-64
2022/04/28 13:52:10;;;;;;;133.82;28.40;;;;;;;;;;4956435;28;20280;-65
2022/04/28 13:54:36;;;;;;;112.00;24.88;;;;;;;;;;4958009;28;20175;-64
2022/04/28 13:57:02;;;;;;;159.30;34.03;;;;;;;;;;4950048;28;20194;-65
2022/04/28 13:59:28;;;;;;;102.18;21.90;;;;;;;;;;4958515;28;22362;-65
2022/04/28 14:01:54;;;;;;;107.85;23.98;;;;;;;;;;4955664;28;20230;-66
2022/04/28 14:04:24;;;;;;;87.75;19.40;;;;;;;;;;4955799;28;20325;-66
2022/04/28 14:06:50;;;;;;;78.43;18.05;;;;;;;;;;4956883;28;20929;-66
2022/04/28 14:09:16;;;;;;;74.82;17.20;;;;;;;;;;4957186;28;20190;-66
2022/04/28 14:11:42;;;;;;;95.43;21.60;;;;;;;;;;4956930;28;20221;-65
2022/04/28 14:14:08;;;;;;;97.72;25.50;;;;;;;;;;4953411;28;20210;-65
2022/04/28 14:16:34;;;;;;;67.63;16.65;;;;;;;;;;4956047;28;20237;-66
2022/04/28 14:19:01;;;;;;;96.47;24.60;;;;;;;;;;4960523;28;20676;-65
2022/04/28 14:21:27;;;;;;;42.67;12.65;;;;;;;;;;4961729;28;20213;-66
2022/04/28 14:23:53;;;;;;;66.95;18.92;;;;;;;;;;4948634;28;20733;-67
2022/04/28 14:26:19;;;;;;;77.88;20.38;;;;;;;;;;4962795;28;20218;-69
2022/04/28 14:28:45;;;;;;;68.45;17.33;;;;;;;;;;4959918;28;20230;-65
2022/04/28 14:31:11;;;;;;;134.15;32.63;;;;;;;;;;4954208;28;20374;-66
2022/04/28 14:33:37;;;;;;;64.20;17.95;;;;;;;;;;4951430;28;20270;-66
2022/04/28 14:36:03;;;;;;;200.77;47.45;;;;;;;;;;4952066;28;20642;-65
2022/04/28 14:38:29;;;;;;;102.82;25.02;;;;;;;;;;4953872;28;20664;-65
2022/04/28 14:40:55;;;;;;;117.03;28.60;;;;;;;;;;4955239;28;20219;-67
2022/04/28 14:43:21;;;;;;;64.25;15.70;;;;;;;;;;4951591;28;20667;-65
2022/04/28 14:45:48;;;;;;;124.63;28.65;;;;;;;;;;4925173;28;20226;-65
2022/04/28 14:48:16;;;;;;;121.03;27.35;;;;;;;;;;4949438;28;20653;-66
2022/04/28 14:53:27;;;;;;;130.35;30.92;;;;;;;;;;4942950;28;20249;-66
2022/04/28 14:55:53;;;;;;;90.88;22.02;;;;;;;;;;4954652;28;20206;-65